Decoded Metar for RCSS (TAIPEI in TAIWAN) (IATA:TSA) | Meteo·Mobile Aviation Weather
aviador You're here:

RCSS Decoded Metar

TAIPEI in TAIWAN
Report Time2018-10-19 09:00:00
UTC Time2018-10-19 09:33:49
Flight Rules vfr VFR
Wind090° at 12 kt
W.Decomp.*RWY 10: 11.9 kt HW 1.5 kt LCW
W.Rank090° ranks 2
Current wind is above 090° avg. (9.6)
Visibility9999 m
Phenomena:N/A
Clouds:Few 015 Hf
Broken 030 Hf
Broken 040 Hf
Expected CloudBase > 1,200 ft AGL from Temp-Dew spread
Ceiling3,000 ft
Temp21°C (ISA +6)
Dew Point18°C (83% RH)
AAT19.5°C
QNH1020 hPa
Density Alt761 ft
Elevation20 ft
Report Wrong Elevation
Raw Report
RCSS 190900Z 09012KT 9999 FEW015 BKN030 BKN040 21/18 Q1020 NOSIG
RMK A3012=

Extra information for RCSS:More info

Metar Taf Metar & Taf Last 4 Metars F.Rules Stats Wind Profile Meteogram Temp Stats Airport Information Weather charts Add Link Nearby VenuesMetar ALERT Operation Metar Decoded Social comments